createdAt,value
2018-11-01T00:04:23.979Z,19.80
2018-11-01T00:09:09.031Z,20.93
2018-11-01T00:13:49.159Z,30.00
2018-11-01T00:18:29.193Z,43.53
2018-11-01T00:23:13.156Z,31.73
2018-11-01T00:27:53.590Z,34.07
2018-11-01T00:32:33.696Z,38.77
2018-11-01T00:37:13.848Z,39.40
2018-11-01T00:41:53.877Z,30.80
2018-11-01T00:46:33.948Z,30.30
2018-11-01T00:51:13.927Z,27.73
2018-11-01T00:55:54.597Z,27.63
2018-11-01T01:00:35.165Z,26.23
2018-11-01T01:05:15.641Z,21.73
2018-11-01T01:09:55.756Z,23.50
2018-11-01T01:14:35.563Z,22.73
2018-11-01T01:19:16.026Z,23.33
2018-11-01T01:23:56.725Z,15.43
2018-11-01T01:28:36.596Z,24.77
2018-11-01T01:33:19.213Z,19.53
2018-11-01T01:37:59.332Z,21.03
2018-11-01T01:42:51.532Z,22.77
2018-11-01T01:47:32.080Z,26.47
2018-11-01T01:52:12.997Z,24.80
2018-11-01T01:56:53.451Z,27.10
2018-11-01T02:01:34.148Z,26.00
2018-11-01T02:06:15.056Z,26.77
2018-11-01T02:10:55.095Z,27.93
2018-11-01T02:15:35.132Z,23.67
2018-11-01T02:20:16.957Z,27.00
2018-11-01T02:24:56.709Z,19.53
2018-11-01T02:29:36.730Z,18.23
2018-11-01T02:34:16.752Z,18.47
2018-11-01T02:38:56.441Z,18.77
2018-11-01T02:43:36.268Z,24.30
2018-11-01T02:48:16.165Z,25.63
2018-11-01T02:52:55.988Z,22.37
2018-11-01T02:57:35.969Z,20.60
2018-11-01T03:02:16.480Z,26.57
2018-11-01T03:06:56.540Z,18.47
2018-11-01T03:11:36.305Z,18.67
2018-11-01T03:16:16.433Z,17.17
2018-11-01T03:20:56.443Z,17.27
2018-11-01T03:25:36.212Z,18.93
2018-11-01T03:30:16.788Z,17.30
2018-11-01T03:34:57.017Z,22.53
2018-11-01T03:39:37.113Z,17.77
2018-11-01T03:44:17.383Z,19.43
2018-11-01T03:48:58.848Z,17.10
2018-11-01T03:53:39.240Z,20.30
2018-11-01T03:58:19.137Z,19.10
2018-11-01T04:02:59.068Z,16.10
2018-11-01T04:07:39.211Z,20.13
2018-11-01T04:12:19.018Z,17.30
2018-11-01T04:16:59.036Z,18.43
2018-11-01T04:21:50.288Z,20.47
2018-11-01T04:26:30.256Z,21.77
2018-11-01T04:31:10.114Z,23.07
2018-11-01T04:35:50.160Z,21.40
2018-11-01T04:40:29.856Z,21.57
2018-11-01T04:45:10.955Z,19.53
2018-11-01T04:49:51.136Z,24.30
2018-11-01T04:54:30.895Z,24.70
2018-11-01T04:59:10.953Z,23.13
2018-11-01T05:03:53.308Z,20.97
2018-11-01T05:08:33.315Z,21.07
2018-11-01T05:13:14.279Z,21.67
2018-11-01T05:17:55.398Z,15.93
2018-11-01T05:22:35.221Z,14.63
2018-11-01T05:27:15.185Z,14.37
2018-11-01T05:31:55.140Z,14.50
2018-11-01T05:36:35.141Z,18.10
2018-11-01T05:41:15.064Z,16.00
2018-11-01T05:45:56.038Z,16.07
2018-11-01T05:50:36.072Z,17.53
2018-11-01T05:55:15.754Z,16.77
2018-11-01T05:59:57.866Z,17.83
2018-11-01T06:04:37.726Z,24.37
2018-11-01T06:09:22.828Z,19.43
2018-11-01T06:14:02.768Z,17.93
2018-11-01T06:18:42.864Z,19.43
2018-11-01T06:23:22.749Z,20.80
2018-11-01T06:28:02.985Z,18.47
2018-11-01T06:32:43.529Z,18.17
2018-11-01T06:37:24.394Z,19.97
2018-11-01T06:42:07.408Z,18.63
2018-11-01T06:46:49.153Z,17.27
2018-11-01T06:51:29.921Z,18.03
2018-11-01T06:56:10.209Z,20.47
2018-11-01T07:00:50.146Z,25.57
2018-11-01T07:05:31.031Z,18.70
2018-11-01T07:10:15.478Z,40.17
2018-11-01T07:14:55.603Z,51.00
2018-11-01T07:19:36.829Z,35.67
2018-11-01T07:24:16.782Z,45.80
2018-11-01T07:28:56.734Z,39.90
2018-11-01T07:33:37.453Z,23.80
2018-11-01T07:38:17.431Z,24.27
2018-11-01T07:42:57.368Z,20.57
2018-11-01T07:47:38.660Z,31.07
2018-11-01T07:52:18.813Z,29.13
2018-11-01T07:56:58.781Z,24.37
2018-11-01T08:01:38.601Z,22.07
2018-11-01T08:06:18.548Z,18.57
2018-11-01T08:10:59.630Z,18.37
2018-11-01T08:15:39.509Z,33.30
2018-11-01T08:20:19.524Z,60.40
2018-11-01T08:24:59.114Z,78.63
2018-11-01T08:29:38.908Z,51.00
2018-11-01T08:34:18.940Z,47.40
2018-11-01T08:38:58.622Z,37.90
2018-11-01T08:43:39.480Z,29.87
2018-11-01T08:48:20.247Z,36.20
2018-11-01T08:53:00.577Z,29.87
2018-11-01T08:57:42.363Z,24.80
2018-11-01T09:02:23.589Z,22.87
2018-11-01T09:07:03.764Z,21.17
2018-11-01T09:11:43.589Z,22.67
2018-11-01T09:16:24.249Z,21.43
2018-11-01T09:21:04.268Z,23.33
2018-11-01T09:25:44.198Z,17.53
2018-11-01T09:30:24.189Z,18.57
2018-11-01T09:35:04.240Z,16.07
2018-11-01T09:39:43.849Z,11.53
2018-11-01T09:44:23.642Z,12.60
2018-11-01T09:49:03.633Z,13.63
2018-11-01T09:53:43.459Z,15.60
2018-11-01T09:58:23.619Z,16.87
2018-11-01T10:03:04.584Z,16.27
2018-11-01T10:07:44.537Z,15.70
2018-11-01T10:12:24.978Z,15.40
2018-11-01T10:17:06.165Z,16.80
2018-11-01T10:21:46.511Z,16.47
2018-11-01T10:26:26.445Z,16.03
2018-11-01T10:31:06.505Z,14.93
2018-11-01T10:35:48.201Z,16.70
2018-11-01T10:40:28.201Z,13.53
2018-11-01T10:45:08.438Z,13.70
2018-11-01T10:49:48.958Z,15.77
2018-11-01T10:54:29.121Z,14.70
2018-11-01T10:59:08.956Z,13.00
2018-11-01T11:03:49.734Z,26.85
2018-11-01T11:08:29.672Z,16.57
2018-11-01T11:13:10.424Z,15.23
2018-11-01T11:17:50.798Z,23.93
2018-11-01T11:22:30.624Z,15.90
2018-11-01T11:27:10.409Z,17.27
2018-11-01T11:31:50.282Z,20.43
2018-11-01T11:36:30.010Z,16.60
2018-11-01T11:41:09.820Z,20.47
2018-11-01T11:45:49.716Z,21.90
2018-11-01T11:50:29.695Z,22.00
2018-11-01T11:55:10.829Z,22.07
2018-11-01T11:59:50.795Z,20.37
2018-11-01T12:04:30.601Z,21.20
2018-11-01T12:09:12.777Z,21.63
2018-11-01T12:13:53.071Z,23.00
2018-11-01T12:18:32.980Z,26.57
2018-11-01T12:23:13.091Z,28.00
2018-11-01T12:27:53.074Z,23.90
2018-11-01T12:32:32.841Z,24.67
2018-11-01T12:37:13.075Z,24.37
2018-11-01T12:41:53.028Z,25.70
2018-11-01T12:46:33.319Z,28.33
2018-11-01T12:51:15.465Z,22.80
2018-11-01T12:55:59.037Z,26.83
2018-11-01T13:00:38.870Z,26.47
2018-11-01T13:05:18.860Z,24.50
2018-11-01T13:09:58.653Z,22.00
2018-11-01T13:14:39.294Z,21.57
2018-11-01T13:19:19.446Z,19.95
2018-11-01T13:23:59.584Z,22.75
2018-11-01T13:28:39.610Z,22.32
2018-11-01T13:33:19.833Z,18.10
2018-11-01T13:37:59.893Z,16.65
2018-11-01T13:42:40.296Z,13.38
2018-11-01T13:47:20.415Z,15.72
2018-11-01T13:52:01.282Z,14.43
2018-11-01T13:56:41.182Z,14.45
2018-11-01T14:01:21.043Z,15.40
2018-11-01T14:06:00.925Z,15.88
2018-11-01T14:10:40.848Z,15.48
2018-11-01T14:15:21.376Z,15.50
2018-11-01T14:20:01.148Z,16.82
2018-11-01T14:24:40.905Z,19.35
2018-11-01T14:29:20.777Z,20.68
2018-11-01T14:34:00.669Z,20.48
2018-11-01T14:38:41.093Z,23.27
2018-11-01T14:43:20.958Z,35.68
2018-11-01T14:48:01.012Z,29.23
2018-11-01T14:52:41.646Z,23.80
2018-11-01T14:57:22.559Z,23.05
2018-11-01T15:02:00.902Z,20.20
2018-11-01T15:06:41.120Z,22.95
2018-11-01T15:11:20.918Z,22.58
2018-11-01T15:16:00.952Z,24.52
2018-11-01T15:20:40.896Z,22.87
2018-11-01T15:25:20.853Z,26.33
2018-11-01T15:30:00.740Z,21.20
2018-11-01T15:34:40.697Z,26.27
2018-11-01T15:39:20.575Z,34.80
2018-11-01T15:44:00.468Z,24.50
2018-11-01T15:48:40.840Z,27.58
2018-11-01T15:53:20.739Z,24.20
2018-11-01T15:58:00.569Z,26.23
2018-11-01T16:02:41.646Z,27.37
2018-11-01T16:07:21.495Z,26.07
2018-11-01T16:12:01.405Z,31.57
2018-11-01T16:16:41.679Z,39.70
2018-11-01T16:21:21.510Z,36.20
2018-11-01T16:26:01.474Z,56.17
2018-11-01T16:30:41.405Z,99.07
2018-11-01T16:35:21.186Z,51.57
2018-11-01T16:40:00.892Z,40.17
2018-11-01T16:44:40.628Z,67.50
2018-11-01T16:49:21.013Z,65.50
2018-11-01T16:54:01.170Z,49.13
2018-11-01T16:58:41.085Z,50.63
2018-11-01T17:03:21.144Z,50.80
2018-11-01T17:08:01.004Z,39.97
2018-11-01T17:12:41.024Z,46.00
2018-11-01T17:17:20.920Z,56.50
2018-11-01T17:22:00.861Z,50.63
2018-11-01T17:26:41.002Z,51.93
2018-11-01T17:31:20.794Z,64.53
2018-11-01T17:36:00.732Z,54.80
2018-11-01T17:40:45.366Z,103.20
2018-11-01T17:45:25.466Z,53.20
2018-11-01T17:50:07.728Z,41.53
2018-11-01T17:54:47.512Z,37.87
2018-11-01T17:59:27.537Z,48.27
2018-11-01T18:04:07.917Z,61.77
2018-11-01T18:08:47.755Z,63.27
2018-11-01T18:13:28.090Z,56.63
2018-11-01T18:18:08.546Z,58.87
2018-11-01T18:22:48.396Z,56.70
2018-11-01T18:27:28.644Z,49.00
2018-11-01T18:32:08.455Z,52.10
2018-11-01T18:36:48.438Z,49.17
2018-11-01T18:41:28.306Z,36.83
2018-11-01T18:46:08.578Z,39.83
2018-11-01T18:50:48.363Z,30.53
2018-11-01T18:55:28.464Z,27.13
2018-11-01T19:00:11.747Z,19.50
2018-11-01T19:04:52.187Z,15.97
2018-11-01T19:09:32.013Z,14.23
2018-11-01T19:14:12.202Z,26.33
2018-11-01T19:18:52.340Z,17.77
2018-11-01T19:23:32.346Z,21.67
2018-11-01T19:28:12.262Z,12.20
2018-11-01T19:32:52.362Z,20.87
2018-11-01T19:37:32.306Z,10.82
2018-11-01T19:42:12.165Z,15.35
2018-11-01T19:46:52.290Z,10.30
2018-11-01T19:51:32.176Z,4.95
2018-11-01T19:56:12.198Z,5.80
2018-11-01T20:00:52.672Z,3.87
2018-11-01T20:05:32.833Z,3.45
2018-11-01T20:10:14.346Z,3.70
2018-11-01T20:14:54.276Z,3.77
2018-11-01T20:19:34.339Z,3.30
2018-11-01T20:24:14.401Z,5.62
2018-11-01T20:28:54.311Z,4.92
2018-11-01T20:33:34.279Z,5.53
2018-11-01T20:38:14.684Z,8.00
2018-11-01T20:42:55.670Z,4.00
2018-11-01T20:47:35.627Z,7.10
2018-11-01T20:52:15.429Z,4.08
2018-11-01T20:56:55.142Z,5.53
2018-11-01T21:01:34.881Z,4.50
2018-11-01T21:06:14.667Z,5.55
2018-11-01T21:10:55.283Z,4.72
2018-11-01T21:15:35.416Z,4.12
2018-11-01T21:20:15.486Z,3.45
2018-11-01T21:24:55.416Z,4.78
2018-11-01T21:29:35.550Z,5.70
2018-11-01T21:34:16.538Z,5.35
2018-11-01T21:38:56.827Z,3.80
2018-11-01T21:43:36.857Z,4.43
2018-11-01T21:48:17.486Z,6.35
2018-11-01T21:52:58.326Z,4.58
2018-11-01T21:57:39.201Z,6.08
2018-11-01T22:02:19.280Z,4.95
2018-11-01T22:07:00.324Z,7.97
2018-11-01T22:11:41.106Z,5.45
2018-11-01T22:16:21.340Z,8.85
2018-11-01T22:21:01.362Z,9.07
2018-11-01T22:25:41.080Z,11.97
2018-11-01T22:30:21.555Z,7.87
2018-11-01T22:35:01.408Z,8.90
2018-11-01T22:39:41.508Z,7.37
2018-11-01T22:44:21.712Z,9.90
2018-11-01T22:49:01.650Z,8.53
2018-11-01T22:53:41.424Z,9.43
2018-11-01T22:58:22.184Z,7.13
2018-11-01T23:03:02.676Z,7.30
2018-11-01T23:07:42.442Z,7.10
2018-11-01T23:12:22.795Z,5.65
2018-11-01T23:17:02.780Z,6.85
2018-11-01T23:21:42.988Z,6.33
2018-11-01T23:26:24.655Z,6.80
2018-11-01T23:31:04.626Z,6.27
2018-11-01T23:35:44.692Z,4.75
2018-11-01T23:40:29.777Z,4.20
2018-11-01T23:45:15.790Z,4.72
2018-11-01T23:51:35.037Z,4.57
2018-11-01T23:56:15.278Z,4.28
